createdAt,value
2019-04-28T00:00:06.197Z,829.55
2019-04-28T00:01:06.240Z,828.43
2019-04-28T00:02:06.186Z,827.34
2019-04-28T00:03:06.192Z,827.76
2019-04-28T00:04:06.184Z,828.37
2019-04-28T00:05:06.182Z,828.5
2019-04-28T00:06:06.239Z,828.57
2019-04-28T00:07:06.204Z,827.59
2019-04-28T00:08:06.186Z,827.32
2019-04-28T00:09:06.216Z,826.74
2019-04-28T00:10:06.209Z,826.49
2019-04-28T00:11:06.210Z,826.47
2019-04-28T00:12:06.191Z,826.12
2019-04-28T00:13:06.239Z,825.97
2019-04-28T00:14:08.345Z,826.87
2019-04-28T00:15:06.197Z,827.23
2019-04-28T00:16:06.233Z,826.32
2019-04-28T00:17:06.222Z,826.19
2019-04-28T00:18:06.205Z,825.61
2019-04-28T00:19:06.234Z,824.92
2019-04-28T00:20:06.215Z,824.29
2019-04-28T00:21:06.210Z,823.22
2019-04-28T00:22:06.222Z,822.89
2019-04-28T00:23:07.090Z,821.98
2019-04-28T00:24:06.226Z,820.89
2019-04-28T00:25:06.212Z,820.36
2019-04-28T00:26:06.243Z,819.94
2019-04-28T00:27:06.243Z,820.4
2019-04-28T00:28:06.212Z,820.15
2019-04-28T00:29:06.239Z,819.89
2019-04-28T00:30:06.248Z,818.96
2019-04-28T00:31:06.249Z,819.34
2019-04-28T00:32:06.214Z,817.99
2019-04-28T00:33:06.224Z,818.01
2019-04-28T00:34:06.268Z,817.15
2019-04-28T00:35:06.254Z,816.82
2019-04-28T00:36:06.244Z,817.03
2019-04-28T00:37:11.114Z,816.15
2019-04-28T00:38:06.259Z,815.85
2019-04-28T00:39:06.240Z,815.51
2019-04-28T00:40:06.253Z,815.14
2019-04-28T00:41:06.252Z,815.17
2019-04-28T00:42:06.240Z,815.01
2019-04-28T00:43:06.228Z,815.89
2019-04-28T00:44:06.234Z,815.92
2019-04-28T00:45:06.239Z,816.45
2019-04-28T00:46:07.933Z,817.61
2019-04-28T00:47:06.255Z,817.75
2019-04-28T00:48:06.272Z,816.86
2019-04-28T00:49:06.262Z,817.03
2019-04-28T00:50:06.267Z,816.26
2019-04-28T00:51:06.277Z,814.63
2019-04-28T00:52:06.281Z,813.85
2019-04-28T00:53:06.260Z,812.26
2019-04-28T00:54:06.276Z,811.56
2019-04-28T00:55:06.296Z,810.41
2019-04-28T00:56:06.308Z,809.25
2019-04-28T00:57:06.310Z,808.8
2019-04-28T00:58:06.259Z,808.99
2019-04-28T00:59:06.333Z,807.9
2019-04-28T01:00:06.270Z,807.65
2019-04-28T01:01:06.299Z,807.18
2019-04-28T01:02:06.264Z,806.63
2019-04-28T01:03:06.334Z,805.43
2019-04-28T01:04:06.281Z,804.63
2019-04-28T01:05:06.287Z,803.8
2019-04-28T01:06:06.314Z,803.95
2019-04-28T01:07:06.296Z,803.48
2019-04-28T01:08:06.289Z,803.65
2019-04-28T01:09:06.287Z,802.91
2019-04-28T01:10:06.277Z,801.78
2019-04-28T01:11:06.306Z,801.35
2019-04-28T01:12:06.293Z,801.06
2019-04-28T01:13:06.302Z,800.11
2019-04-28T01:14:06.343Z,800.3
2019-04-28T01:15:06.269Z,799.75
2019-04-28T01:16:06.308Z,798.76
2019-04-28T01:17:06.391Z,798.16
2019-04-28T01:18:06.315Z,797.54
2019-04-28T01:19:06.282Z,798.16
2019-04-28T01:20:06.312Z,798.63
2019-04-28T01:21:06.319Z,798.13
2019-04-28T01:22:06.306Z,798.91
2019-04-28T01:23:06.311Z,799.26
2019-04-28T01:24:06.334Z,799.29
2019-04-28T01:25:06.281Z,799.13
2019-04-28T01:26:06.326Z,798.14
2019-04-28T01:27:06.315Z,797.84
2019-04-28T01:28:06.344Z,797.23
2019-04-28T01:29:06.288Z,795.05
2019-04-28T01:30:09.059Z,796.52
2019-04-28T01:31:06.342Z,796.2
2019-04-28T01:32:06.308Z,795.51
2019-04-28T01:33:06.342Z,795.34
2019-04-28T01:34:07.266Z,794.64
2019-04-28T01:35:06.328Z,794.95
2019-04-28T01:36:06.353Z,794.97
2019-04-28T01:37:06.317Z,793.62
2019-04-28T01:38:06.327Z,794.3
2019-04-28T01:39:06.357Z,792.67
2019-04-28T01:40:06.358Z,792.23
2019-04-28T01:41:06.325Z,790.92
2019-04-28T01:42:06.430Z,790.25
2019-04-28T01:43:06.358Z,789.77
2019-04-28T01:44:06.347Z,789.92
2019-04-28T01:45:06.347Z,791.02
2019-04-28T01:46:14.742Z,790.92
2019-04-28T01:47:06.309Z,791.57
2019-04-28T01:48:06.336Z,790.73
2019-04-28T01:49:06.321Z,790.78
2019-04-28T01:50:06.325Z,789
2019-04-28T01:51:06.338Z,789.13
2019-04-28T01:52:06.357Z,789.01
2019-04-28T01:53:06.334Z,788.61
2019-04-28T01:54:06.338Z,787.8
2019-04-28T01:55:06.322Z,787.96
2019-04-28T01:56:06.407Z,788.26
2019-04-28T01:57:06.357Z,788.83
2019-04-28T01:58:06.339Z,789.12
2019-04-28T01:59:06.342Z,789.57
2019-04-28T02:00:18.928Z,789.41
2019-04-28T02:01:06.366Z,788.57
2019-04-28T02:02:06.327Z,788.6
2019-04-28T02:03:06.911Z,788.41
2019-04-28T02:04:06.363Z,788.62
2019-04-28T02:05:06.363Z,788.11
2019-04-28T02:06:06.355Z,788.33
2019-04-28T02:07:06.357Z,785.88
2019-04-28T02:08:06.382Z,786.5
2019-04-28T02:09:06.373Z,785.28
2019-04-28T02:10:06.337Z,784.54
2019-04-28T02:11:06.351Z,784.41
2019-04-28T02:12:06.349Z,783.49
2019-04-28T02:13:06.354Z,783.43
2019-04-28T02:14:06.387Z,782.82
2019-04-28T02:15:06.350Z,782.54
2019-04-28T02:16:13.811Z,782.61
2019-04-28T02:17:06.365Z,781.47
2019-04-28T02:18:06.348Z,781.05
2019-04-28T02:19:06.354Z,782.07
2019-04-28T02:20:06.387Z,782.38
2019-04-28T02:21:06.365Z,782.73
2019-04-28T02:22:06.358Z,782.23
2019-04-28T02:23:06.382Z,782.56
2019-04-28T02:24:06.368Z,782.56
2019-04-28T02:25:06.378Z,782.88
2019-04-28T02:26:06.367Z,782.4
2019-04-28T02:27:06.416Z,782.88
2019-04-28T02:28:06.409Z,783
2019-04-28T02:29:06.382Z,782.27
2019-04-28T02:30:06.366Z,781.93
2019-04-28T02:31:06.389Z,782.12
2019-04-28T02:32:06.376Z,781.09
2019-04-28T02:33:06.365Z,780.8
2019-04-28T02:34:06.393Z,779.65
2019-04-28T02:35:06.395Z,779.05
2019-04-28T02:36:08.779Z,777.7
2019-04-28T02:37:06.375Z,776.96
2019-04-28T02:38:06.395Z,776.77
2019-04-28T02:39:06.402Z,776.52
2019-04-28T02:40:06.394Z,775.88
2019-04-28T02:41:06.397Z,775.88
2019-04-28T02:42:06.405Z,775.86
2019-04-28T02:43:06.406Z,775.55
2019-04-28T02:44:06.379Z,775.09
2019-04-28T02:45:06.406Z,774.97
2019-04-28T02:46:06.387Z,775.91
2019-04-28T02:47:06.397Z,776.22
2019-04-28T02:48:06.401Z,776.37
2019-04-28T02:49:06.433Z,777.91
2019-04-28T02:50:06.426Z,778.67
2019-04-28T02:51:06.409Z,778.97
2019-04-28T02:52:06.428Z,779.3
2019-04-28T02:53:06.414Z,779.6
2019-04-28T02:54:06.433Z,779.15
2019-04-28T02:55:06.417Z,778.05
2019-04-28T02:56:06.404Z,777.9
2019-04-28T02:57:06.423Z,777.85
2019-04-28T02:58:06.420Z,778.5
2019-04-28T02:59:06.399Z,779.76
2019-04-28T03:00:06.424Z,780.15
2019-04-28T03:01:15.877Z,780.46
2019-04-28T03:02:06.500Z,781.15
2019-04-28T03:03:06.747Z,781.34
2019-04-28T03:04:06.435Z,780.86
2019-04-28T03:05:06.411Z,781.56
2019-04-28T03:06:06.418Z,781
2019-04-28T03:07:06.416Z,780.75
2019-04-28T03:08:06.437Z,780.3
2019-04-28T03:09:06.421Z,779.71
2019-04-28T03:10:06.412Z,779.7
2019-04-28T03:11:06.477Z,779.16
2019-04-28T03:12:06.446Z,778.32
2019-04-28T03:13:06.445Z,778.09
2019-04-28T03:14:06.435Z,777.64
2019-04-28T03:15:06.435Z,776.74
2019-04-28T03:16:06.435Z,776.22
2019-04-28T03:17:06.432Z,776.12
2019-04-28T03:18:06.416Z,776.01
2019-04-28T03:19:06.439Z,775.96
2019-04-28T03:20:06.431Z,775.97
2019-04-28T03:21:06.439Z,774.92
2019-04-28T03:22:06.422Z,775.21
2019-04-28T03:23:09.006Z,774.7
2019-04-28T03:24:06.445Z,775.45
2019-04-28T03:25:06.441Z,774.97
2019-04-28T03:26:06.451Z,774.51
2019-04-28T03:27:06.458Z,773.83
2019-04-28T03:28:06.466Z,773.09
2019-04-28T03:29:06.430Z,771.91
2019-04-28T03:30:06.464Z,771.48
2019-04-28T03:31:36.295Z,770.73
2019-04-28T03:33:12.826Z,769.01
2019-04-28T03:34:06.592Z,769.33
2019-04-28T03:35:06.604Z,768.97
2019-04-28T03:36:08.215Z,769.03
2019-04-28T03:37:06.609Z,768.08
2019-04-28T03:38:06.631Z,766.69
2019-04-28T03:39:06.576Z,766.3
2019-04-28T03:40:06.601Z,765.51
2019-04-28T03:41:06.612Z,765.54
2019-04-28T03:42:06.577Z,765.42
2019-04-28T03:43:06.605Z,765.56
2019-04-28T03:44:06.669Z,765.89
2019-04-28T03:45:06.616Z,766.67
2019-04-28T03:46:06.608Z,765.88
2019-04-28T03:47:06.612Z,764.44
2019-04-28T03:48:06.608Z,764.29
2019-04-28T03:49:06.607Z,764.5
2019-04-28T03:50:06.589Z,764.02
2019-04-28T03:51:06.590Z,764.49
2019-04-28T03:52:06.600Z,764.45
2019-04-28T03:53:06.611Z,765.26
2019-04-28T03:54:06.609Z,766.34
2019-04-28T03:55:06.602Z,767.1
2019-04-28T03:56:06.909Z,767.74
2019-04-28T03:57:06.631Z,767.61
2019-04-28T03:58:06.620Z,766.98
2019-04-28T03:59:06.602Z,765.78
2019-04-28T04:00:06.613Z,764.99
2019-04-28T04:01:06.619Z,764.18
2019-04-28T04:02:06.619Z,763.78
2019-04-28T04:03:06.608Z,764.21
2019-04-28T04:04:06.623Z,764.67
2019-04-28T04:05:06.630Z,766.37
2019-04-28T04:06:06.636Z,765.66
2019-04-28T04:07:06.613Z,766.76
2019-04-28T04:08:06.625Z,767.32
2019-04-28T04:09:06.625Z,767.71
2019-04-28T04:10:06.631Z,768.43
2019-04-28T04:11:06.618Z,767.96
2019-04-28T04:12:06.624Z,767
2019-04-28T04:13:06.636Z,765.62
2019-04-28T04:14:06.637Z,766.35
2019-04-28T04:15:06.630Z,765.69
2019-04-28T04:16:06.649Z,765.79
2019-04-28T04:17:06.638Z,766.81
2019-04-28T04:18:06.639Z,765.58
2019-04-28T04:19:06.730Z,765.12
2019-04-28T04:20:06.655Z,765.15
2019-04-28T04:21:06.643Z,765.57
2019-04-28T04:22:06.646Z,767.33
2019-04-28T04:23:06.648Z,768.65
2019-04-28T04:24:06.677Z,769.37
2019-04-28T04:25:08.897Z,770.78
2019-04-28T04:26:06.653Z,772.31
2019-04-28T04:27:06.641Z,774.18
2019-04-28T04:28:06.639Z,775.07
2019-04-28T04:29:06.631Z,775.82
2019-04-28T04:30:06.642Z,776.3
2019-04-28T04:31:06.680Z,776.43
2019-04-28T04:32:14.608Z,776.92
2019-04-28T04:33:06.640Z,776.62
2019-04-28T04:34:06.667Z,777.39
2019-04-28T04:35:06.669Z,777.68
2019-04-28T04:36:06.680Z,778.12
2019-04-28T04:37:06.669Z,778.6
2019-04-28T04:38:06.671Z,778.3
2019-04-28T04:39:06.674Z,778.74
2019-04-28T04:40:06.664Z,778.96
2019-04-28T04:41:06.670Z,779.34
2019-04-28T04:42:06.656Z,779.66
2019-04-28T04:43:06.684Z,780.12
2019-04-28T04:44:06.668Z,780.25
2019-04-28T04:45:06.658Z,781.64
2019-04-28T04:46:06.683Z,782.58
2019-04-28T04:47:06.667Z,783.24
2019-04-28T04:48:06.677Z,783.76
2019-04-28T04:49:06.700Z,783.97
2019-04-28T04:50:06.682Z,783.73
2019-04-28T04:51:06.693Z,783.68
2019-04-28T04:52:06.673Z,783.56
2019-04-28T04:53:06.660Z,782.06
2019-04-28T04:54:06.689Z,780.79
2019-04-28T04:55:06.659Z,780.02
2019-04-28T04:56:06.701Z,778.82
2019-04-28T04:57:06.670Z,777.56
2019-04-28T04:58:06.697Z,776.04
2019-04-28T04:59:06.688Z,774.24
2019-04-28T05:00:06.687Z,773.46
2019-04-28T05:01:06.680Z,771.79
2019-04-28T05:02:06.707Z,771.23
2019-04-28T05:03:06.705Z,770.34
2019-04-28T05:04:06.696Z,769.93
2019-04-28T05:05:06.702Z,768.97
2019-04-28T05:06:06.689Z,768.39
2019-04-28T05:07:06.736Z,767.62
2019-04-28T05:08:06.698Z,767.62
2019-04-28T05:09:06.704Z,767.13
2019-04-28T05:10:06.699Z,767.15
2019-04-28T05:11:06.683Z,767.61
2019-04-28T05:12:06.704Z,767.72
2019-04-28T05:13:06.712Z,767.95
2019-04-28T05:14:07.523Z,767.26
2019-04-28T05:15:06.686Z,767.43
2019-04-28T05:16:06.712Z,767.52
2019-04-28T05:17:06.726Z,767.63
2019-04-28T05:18:06.715Z,767.59
2019-04-28T05:19:06.713Z,767.74
2019-04-28T05:20:06.824Z,767.77
2019-04-28T05:21:06.693Z,767.75
2019-04-28T05:22:06.710Z,767.27
2019-04-28T05:23:06.707Z,766.74
2019-04-28T05:24:09.109Z,767.67
2019-04-28T05:25:06.692Z,767.29
2019-04-28T05:26:07.902Z,768.32
2019-04-28T05:27:06.728Z,767.83
2019-04-28T05:28:06.709Z,768.81
2019-04-28T05:29:06.716Z,769.22
2019-04-28T05:30:06.703Z,770.63
2019-04-28T05:31:06.719Z,771.02
2019-04-28T05:32:07.086Z,772.32
2019-04-28T05:33:06.703Z,773.09
2019-04-28T05:34:08.037Z,775.09
2019-04-28T05:35:06.717Z,776.26
2019-04-28T05:36:06.747Z,776.68
2019-04-28T05:37:06.749Z,777.49
2019-04-28T05:38:06.713Z,777.64
2019-04-28T05:39:06.746Z,778.54
2019-04-28T05:40:06.749Z,779.97
2019-04-28T05:41:07.071Z,780.2
2019-04-28T05:42:06.730Z,781.47
2019-04-28T05:43:06.750Z,782.52
2019-04-28T05:44:06.717Z,783.37
2019-04-28T05:45:06.722Z,784.05
2019-04-28T05:46:06.732Z,784.18
2019-04-28T05:47:06.747Z,784.89
2019-04-28T05:48:08.934Z,785.69
2019-04-28T05:49:06.760Z,787.03
2019-04-28T05:50:06.728Z,787.3
2019-04-28T05:51:06.754Z,788.7
2019-04-28T05:52:06.743Z,789.22
2019-04-28T05:53:06.762Z,790.47
2019-04-28T05:54:06.753Z,791.5
2019-04-28T05:55:06.732Z,793.3
2019-04-28T05:56:06.742Z,793.77
2019-04-28T05:57:06.771Z,794.91
2019-04-28T05:58:06.756Z,795.37
2019-04-28T05:59:06.738Z,796.49
2019-04-28T06:00:06.750Z,796.24
2019-04-28T06:01:06.793Z,798.26
2019-04-28T06:02:06.739Z,798.16
2019-04-28T06:03:06.750Z,798.8
2019-04-28T06:04:06.757Z,799.34
2019-04-28T06:05:06.797Z,799.84
2019-04-28T06:06:06.767Z,800.22
2019-04-28T06:07:07.079Z,801.42
2019-04-28T06:08:06.780Z,802.14
2019-04-28T06:09:06.773Z,803.09
2019-04-28T06:10:06.758Z,802.9
2019-04-28T06:11:06.779Z,803.22
2019-04-28T06:12:06.784Z,803.2
2019-04-28T06:13:06.777Z,804.13
2019-04-28T06:14:06.759Z,804.47
2019-04-28T06:15:06.769Z,804.95
2019-04-28T06:16:06.774Z,805.41
2019-04-28T06:17:06.797Z,805.86
2019-04-28T06:18:06.787Z,806.9
2019-04-28T06:19:06.811Z,806.86
2019-04-28T06:20:06.777Z,807.31
2019-04-28T06:21:06.764Z,808.43
2019-04-28T06:22:06.773Z,808.85
2019-04-28T06:23:06.818Z,809.48
2019-04-28T06:24:06.801Z,808.92
2019-04-28T06:25:06.826Z,809.05
2019-04-28T06:26:06.793Z,809.42
2019-04-28T06:27:06.823Z,809.46
2019-04-28T06:28:06.788Z,809.9
2019-04-28T06:29:06.774Z,810.03
2019-04-28T06:30:06.804Z,810.36
2019-04-28T06:31:06.811Z,811.83
2019-04-28T06:32:06.800Z,812.73
2019-04-28T06:33:08.254Z,813.37
2019-04-28T06:34:06.789Z,814.88
2019-04-28T06:35:06.870Z,815
2019-04-28T06:36:07.107Z,815.82
2019-04-28T06:37:06.801Z,816.57
2019-04-28T06:38:06.811Z,815.82
2019-04-28T06:39:06.801Z,817.91
2019-04-28T06:40:06.827Z,818.86
2019-04-28T06:41:06.833Z,819.18
2019-04-28T06:42:06.963Z,820.57
2019-04-28T06:43:06.870Z,821.3
2019-04-28T06:44:06.912Z,821.79
2019-04-28T06:45:06.828Z,822.57
2019-04-28T06:46:06.827Z,822.89
2019-04-28T06:47:08.818Z,823.6
2019-04-28T06:48:06.833Z,824.28
2019-04-28T06:49:06.797Z,825.56
2019-04-28T06:50:06.830Z,826.33
2019-04-28T06:51:06.826Z,827.73
2019-04-28T06:52:06.820Z,828.73
2019-04-28T06:53:06.821Z,829.5
2019-04-28T06:54:06.830Z,829.76
2019-04-28T06:55:06.814Z,829.81
2019-04-28T06:56:06.803Z,831.36
2019-04-28T06:57:06.810Z,831.12
2019-04-28T06:58:06.815Z,832.92
2019-04-28T06:59:06.823Z,833.79
2019-04-28T07:00:06.834Z,834.88
2019-04-28T07:01:06.832Z,835.04
2019-04-28T07:02:06.840Z,836.63
2019-04-28T07:03:09.285Z,837.69
2019-04-28T07:04:06.816Z,838.9
2019-04-28T07:05:06.836Z,840.76
2019-04-28T07:06:06.886Z,842.67
2019-04-28T07:07:07.780Z,845.13
2019-04-28T07:08:07.783Z,847.24
2019-04-28T07:09:06.907Z,850.58
2019-04-28T07:10:07.831Z,853.02
2019-04-28T07:11:07.554Z,855.31
2019-04-28T07:12:07.869Z,857.69
2019-04-28T07:13:06.851Z,859.74
2019-04-28T07:14:06.861Z,863.43
2019-04-28T07:15:06.851Z,866.66
2019-04-28T07:16:07.589Z,871.72
2019-04-28T07:17:06.912Z,878.19
2019-04-28T07:18:06.876Z,885.04
2019-04-28T07:19:06.862Z,891.57
2019-04-28T07:20:06.932Z,897.74
2019-04-28T07:21:06.858Z,904.66
2019-04-28T07:22:06.880Z,912.45
2019-04-28T07:23:06.865Z,918.97
2019-04-28T07:24:06.871Z,925.43
2019-04-28T07:25:06.927Z,932.07
2019-04-28T07:26:06.881Z,937.77
2019-04-28T07:27:06.877Z,942.15
2019-04-28T07:28:06.876Z,948
2019-04-28T07:29:06.902Z,952.23
2019-04-28T07:30:06.908Z,956.01
2019-04-28T07:31:06.896Z,960.06
2019-04-28T07:32:06.887Z,963.39
2019-04-28T07:33:06.893Z,968.65
2019-04-28T07:34:06.894Z,971.61
2019-04-28T07:35:06.865Z,970.85
2019-04-28T07:36:06.895Z,977.9
2019-04-28T07:37:06.981Z,980.82
2019-04-28T07:38:06.886Z,979.4
2019-04-28T07:39:06.933Z,982.5
2019-04-28T07:40:06.939Z,986.94
2019-04-28T07:41:06.882Z,986.98
2019-04-28T07:42:06.910Z,989.49
2019-04-28T07:43:07.203Z,988.23
2019-04-28T07:44:06.964Z,986.46
2019-04-28T07:45:07.034Z,985.13
2019-04-28T07:46:06.898Z,983.34
2019-04-28T07:47:06.939Z,980.82
2019-04-28T07:48:16.420Z,979.21
2019-04-28T07:49:07.597Z,977.72
2019-04-28T07:50:06.953Z,975.07
2019-04-28T07:51:07.502Z,971.69
2019-04-28T07:52:07.445Z,968.9
2019-04-28T07:53:07.912Z,966.86
2019-04-28T07:54:06.912Z,964.41
2019-04-28T07:55:06.922Z,962.21
2019-04-28T07:56:06.902Z,960.04
2019-04-28T07:57:07.032Z,958.34
2019-04-28T07:58:06.898Z,957.04
2019-04-28T07:59:06.964Z,956.33
2019-04-28T08:00:06.909Z,956.38
2019-04-28T08:01:06.918Z,955.53
2019-04-28T08:02:06.920Z,955.9
2019-04-28T08:03:06.926Z,956.72
2019-04-28T08:04:06.918Z,957.9
2019-04-28T08:05:06.927Z,959.38
2019-04-28T08:06:06.930Z,961.21
2019-04-28T08:07:07.243Z,963.21
2019-04-28T08:08:06.937Z,965.42
2019-04-28T08:09:06.927Z,968.28
2019-04-28T08:10:06.938Z,971.47
2019-04-28T08:11:06.918Z,977.75
2019-04-28T08:12:07.738Z,979.86
2019-04-28T08:13:06.934Z,982.02
2019-04-28T08:14:06.946Z,989.54
2019-04-28T08:15:06.930Z,997.1
2019-04-28T08:16:06.937Z,1005.61
2019-04-28T08:17:07.587Z,1008.8
2019-04-28T08:18:06.955Z,1010.74
2019-04-28T08:19:06.961Z,1020.49
2019-04-28T08:20:06.946Z,1029.62
2019-04-28T08:21:07.015Z,1036
2019-04-28T08:22:06.943Z,1037.66
2019-04-28T08:23:07.096Z,1038.31
2019-04-28T08:24:06.981Z,1038.18
2019-04-28T08:25:06.980Z,1042.18
2019-04-28T08:26:06.946Z,1048.72
2019-04-28T08:27:07.001Z,1046.24
2019-04-28T08:28:06.999Z,1046.73
2019-04-28T08:29:07.030Z,1051.37
2019-04-28T08:30:06.992Z,1050.03
2019-04-28T08:31:07.554Z,1049.44
2019-04-28T08:32:06.987Z,1053.4
2019-04-28T08:33:06.953Z,1054.05
2019-04-28T08:34:06.957Z,1055.17
2019-04-28T08:35:06.964Z,1061.16
2019-04-28T08:36:06.993Z,1063.19
2019-04-28T08:37:07.025Z,1061.83
2019-04-28T08:38:06.989Z,1062.13
2019-04-28T08:39:07.630Z,1067.84
2019-04-28T08:40:07.005Z,1073.25
2019-04-28T08:41:07.557Z,1076.71
2019-04-28T08:42:07.278Z,1077.81
2019-04-28T08:43:07.003Z,1080.9
2019-04-28T08:44:06.982Z,1086.05
2019-04-28T08:45:06.977Z,1090.55
2019-04-28T08:46:07.016Z,1094.48
2019-04-28T08:47:07.070Z,1096.79
2019-04-28T08:48:07.014Z,1097.85
2019-04-28T08:49:06.998Z,1098.99
2019-04-28T08:50:08.668Z,1100.19
2019-04-28T08:51:07.171Z,1101.86
2019-04-28T08:52:07.019Z,1103.17
2019-04-28T08:53:07.059Z,1104.38
2019-04-28T08:54:07.006Z,1105.41
2019-04-28T08:55:07.012Z,1106.52
2019-04-28T08:56:07.002Z,1107.06
2019-04-28T08:57:07.007Z,1108.56
2019-04-28T08:58:07.026Z,1109.84
2019-04-28T08:59:07.011Z,1110.74
2019-04-28T09:00:07.283Z,1111.11
2019-04-28T09:01:07.009Z,1112.15
2019-04-28T09:02:07.136Z,1114.32
2019-04-28T09:03:07.019Z,1116.99
2019-04-28T09:04:15.035Z,1119.9
2019-04-28T09:05:09.140Z,1119.27
2019-04-28T09:06:08.711Z,1116.81
2019-04-28T09:07:07.027Z,1114.39
2019-04-28T09:08:07.015Z,1116.8
2019-04-28T09:09:07.876Z,1118.64
2019-04-28T09:10:07.024Z,1120.21
2019-04-28T09:11:07.040Z,1122.03
2019-04-28T09:12:07.985Z,1122.79
2019-04-28T09:13:07.068Z,1124.16
2019-04-28T09:14:07.053Z,1125.61
2019-04-28T09:15:07.023Z,1127.12
2019-04-28T09:16:07.025Z,1128.04
2019-04-28T09:17:07.084Z,1128.56
2019-04-28T09:18:07.049Z,1128.65
2019-04-28T09:19:07.073Z,1128.89
2019-04-28T09:20:07.047Z,1129.06
2019-04-28T09:21:07.087Z,1129.37
2019-04-28T09:22:07.180Z,1129.89
2019-04-28T09:23:07.065Z,1130.83
2019-04-28T09:24:11.125Z,1131.65
2019-04-28T09:25:07.073Z,1132.33
2019-04-28T09:26:07.059Z,1132.66
2019-04-28T09:27:07.063Z,1132.95
2019-04-28T09:28:07.070Z,1133.23
2019-04-28T09:29:10.187Z,1133.36
2019-04-28T09:30:07.048Z,1133.59
2019-04-28T09:31:07.070Z,1133.83
2019-04-28T09:32:07.077Z,1134.17
2019-04-28T09:33:07.050Z,1134.22
2019-04-28T09:34:27.722Z,1134.32
2019-04-28T09:35:07.076Z,1134.32
2019-04-28T09:36:07.064Z,1134.32
2019-04-28T09:37:07.090Z,1134.3
2019-04-28T09:38:07.104Z,1134.17
2019-04-28T09:39:07.075Z,1134.04
2019-04-28T09:40:07.091Z,1134.03
2019-04-28T09:41:07.135Z,1134.16
2019-04-28T09:42:08.194Z,1134.22
2019-04-28T09:43:07.100Z,1134.22
2019-04-28T09:44:07.102Z,1134.05
2019-04-28T09:45:07.101Z,1134.12
2019-04-28T09:46:07.090Z,1133.29
2019-04-28T09:47:18.121Z,1132.33
2019-04-28T09:48:07.110Z,1131.16
2019-04-28T09:49:07.093Z,1131.64
2019-04-28T09:50:07.121Z,1132.49
2019-04-28T09:51:07.116Z,1133.16
2019-04-28T09:52:08.595Z,1133.67
2019-04-28T09:53:08.143Z,1133.84
2019-04-28T09:54:07.114Z,1134.08
2019-04-28T09:55:07.101Z,1134.3
2019-04-28T09:56:08.846Z,1134.47
2019-04-28T09:57:07.091Z,1134.47
2019-04-28T09:58:07.098Z,1134.51
2019-04-28T09:59:17.583Z,1134.5
2019-04-28T10:00:07.154Z,1134.48
2019-04-28T10:01:07.117Z,1134.42
2019-04-28T10:02:10.930Z,1134.4
2019-04-28T10:03:14.471Z,1134.28
2019-04-28T10:04:07.108Z,1134.03
2019-04-28T10:05:07.160Z,1133.75
2019-04-28T10:06:07.142Z,1133.28
2019-04-28T10:07:07.107Z,1132.99
2019-04-28T10:08:07.116Z,1132.59
2019-04-28T10:09:07.166Z,1132.21
2019-04-28T10:10:07.313Z,1131.66
2019-04-28T10:11:07.118Z,1131.34
2019-04-28T10:12:07.145Z,1132.73
2019-04-28T10:13:07.151Z,1133.62
2019-04-28T10:14:07.182Z,1134.14
2019-04-28T10:15:07.141Z,1134.31
2019-04-28T10:16:07.147Z,1134.44
2019-04-28T10:17:10.721Z,1134.4
2019-04-28T10:18:07.144Z,1134.13
2019-04-28T10:19:07.149Z,1133.62
2019-04-28T10:20:07.136Z,1132.96
2019-04-28T10:21:07.164Z,1131.98
2019-04-28T10:22:07.218Z,1130.87
2019-04-28T10:23:07.197Z,1129.78
2019-04-28T10:24:07.204Z,1128.88
2019-04-28T10:25:07.168Z,1128.09
2019-04-28T10:26:07.170Z,1127.03
2019-04-28T10:27:07.189Z,1126.06
2019-04-28T10:28:07.169Z,1125.02
2019-04-28T10:29:07.183Z,1123.96
2019-04-28T10:30:07.179Z,1122.75
2019-04-28T10:31:07.172Z,1121.77
2019-04-28T10:32:07.189Z,1120.69
2019-04-28T10:33:07.164Z,1119.64
2019-04-28T10:34:07.195Z,1118.43
2019-04-28T10:35:07.196Z,1116.9
2019-04-28T10:36:07.183Z,1115.23
2019-04-28T10:37:07.188Z,1113.88
2019-04-28T10:38:07.173Z,1112.63
2019-04-28T10:39:07.202Z,1111.77
2019-04-28T10:40:07.165Z,1111.03
2019-04-28T10:41:07.217Z,1110.39
2019-04-28T10:42:07.178Z,1109.74
2019-04-28T10:43:07.183Z,1108.91
2019-04-28T10:44:08.574Z,1108.43
2019-04-28T10:45:07.178Z,1107.34
2019-04-28T10:46:07.224Z,1106.73
2019-04-28T10:47:17.887Z,1105.7
2019-04-28T10:48:07.193Z,1104.73
2019-04-28T10:49:07.184Z,1103.85
2019-04-28T10:50:07.185Z,1102.63
2019-04-28T10:51:07.197Z,1101.43
2019-04-28T10:52:07.218Z,1099.99
2019-04-28T10:53:07.210Z,1098.94
2019-04-28T10:54:07.210Z,1097.18
2019-04-28T10:55:07.217Z,1095.69
2019-04-28T10:56:07.188Z,1094.96
2019-04-28T10:57:07.191Z,1094.32
2019-04-28T10:58:07.219Z,1093.99
2019-04-28T10:59:07.225Z,1093.62
2019-04-28T11:00:07.196Z,1092.9
2019-04-28T11:01:07.200Z,1092.35
2019-04-28T11:02:07.220Z,1091.78
2019-04-28T11:03:07.231Z,1090.45
2019-04-28T11:04:07.200Z,1088.84
2019-04-28T11:05:08.327Z,1087.97
2019-04-28T11:06:07.215Z,1087.45
2019-04-28T11:07:07.234Z,1087.29
2019-04-28T11:08:07.247Z,1086.75
2019-04-28T11:09:07.248Z,1085.78
2019-04-28T11:10:07.235Z,1084.85
2019-04-28T11:11:07.222Z,1083.56
2019-04-28T11:12:07.230Z,1082.9
2019-04-28T11:13:07.217Z,1081.77
2019-04-28T11:14:07.240Z,1080.6
2019-04-28T11:15:07.247Z,1079.79
2019-04-28T11:16:07.253Z,1079.31
2019-04-28T11:17:18.527Z,1079.49
2019-04-28T11:18:07.275Z,1079.56
2019-04-28T11:19:07.237Z,1080.12
2019-04-28T11:20:07.225Z,1080.1
2019-04-28T11:21:07.278Z,1079.58
2019-04-28T11:22:07.260Z,1078.78
2019-04-28T11:23:07.253Z,1078.07
2019-04-28T11:24:07.271Z,1077.9
2019-04-28T11:25:07.263Z,1077.45
2019-04-28T11:26:07.268Z,1077.97
2019-04-28T11:27:07.276Z,1078.3
2019-04-28T11:28:07.274Z,1079.22
2019-04-28T11:29:07.249Z,1079.85
2019-04-28T11:30:07.271Z,1080.53
2019-04-28T11:31:07.281Z,1080.76
2019-04-28T11:32:07.248Z,1080.59
2019-04-28T11:33:07.277Z,1079.88
2019-04-28T11:34:07.285Z,1079.55
2019-04-28T11:35:07.268Z,1079.18
2019-04-28T11:36:07.293Z,1078.51
2019-04-28T11:37:07.262Z,1078.53
2019-04-28T11:38:07.309Z,1078.74
2019-04-28T11:39:07.296Z,1079.41
2019-04-28T11:40:07.306Z,1079.98
2019-04-28T11:41:07.278Z,1080.36
2019-04-28T11:42:07.292Z,1081.01
2019-04-28T11:43:07.280Z,1081.6
2019-04-28T11:44:07.298Z,1082.13
2019-04-28T11:45:07.269Z,1081.89
2019-04-28T11:46:07.292Z,1081.22
2019-04-28T11:47:07.507Z,1080.95
2019-04-28T11:48:07.353Z,1081
2019-04-28T11:49:07.323Z,1082.03
2019-04-28T11:50:07.311Z,1082.68
2019-04-28T11:51:07.330Z,1083.55
2019-04-28T11:52:07.315Z,1083.89
2019-04-28T11:53:07.675Z,1084.49
2019-04-28T11:54:07.328Z,1084.84
2019-04-28T11:55:07.299Z,1085.07
2019-04-28T11:56:07.302Z,1085.4
2019-04-28T11:57:07.332Z,1085.39
2019-04-28T11:58:07.296Z,1085.66
2019-04-28T11:59:07.326Z,1085.88
2019-04-28T12:00:07.333Z,1085.81
2019-04-28T12:01:07.317Z,1086.3
2019-04-28T12:02:07.309Z,1086.74
2019-04-28T12:03:07.308Z,1087.22
2019-04-28T12:04:07.331Z,1087.63
2019-04-28T12:05:07.322Z,1088.21
2019-04-28T12:06:07.331Z,1088.79
2019-04-28T12:07:07.322Z,1089.79
2019-04-28T12:08:07.406Z,1091.5
2019-04-28T12:09:07.326Z,1093.17
2019-04-28T12:10:07.362Z,1094.48
2019-04-28T12:11:07.338Z,1095.89
2019-04-28T12:12:08.665Z,1097.3
2019-04-28T12:13:07.334Z,1098.81
2019-04-28T12:14:07.347Z,1100.1
2019-04-28T12:15:07.332Z,1101.61
2019-04-28T12:16:07.320Z,1104.9
2019-04-28T12:17:07.369Z,1110.17
2019-04-28T12:18:07.426Z,1111.46
2019-04-28T12:19:07.346Z,1114.56
2019-04-28T12:20:07.408Z,1115.29
2019-04-28T12:21:07.453Z,1115.43
2019-04-28T12:22:07.420Z,1115.59
2019-04-28T12:23:09.658Z,1115.88
2019-04-28T12:24:07.335Z,1116.64